sensor_id;sensor_type;location;lat;lon;timestamp;P1;durP1;ratioP1;P2;durP2;ratioP2
55364;SDS011;41245;45.384;20.390;2022-07-29T00:01:21;34.60;;;21.38;;
55364;SDS011;41245;45.384;20.390;2022-07-29T00:03:47;23.27;;;16.42;;
55364;SDS011;41245;45.384;20.390;2022-07-29T00:06:13;13.77;;;10.50;;
55364;SDS011;41245;45.384;20.390;2022-07-29T00:08:39;15.00;;;9.07;;
55364;SDS011;41245;45.384;20.390;2022-07-29T00:11:05;10.48;;;8.10;;
55364;SDS011;41245;45.384;20.390;2022-07-29T00:13:31;10.88;;;7.88;;
55364;SDS011;41245;45.384;20.390;2022-07-29T00:15:56;9.38;;;7.78;;
55364;SDS011;41245;45.384;20.390;2022-07-29T00:18:22;10.90;;;7.80;;
55364;SDS011;41245;45.384;20.390;2022-07-29T00:20:48;10.95;;;7.95;;
55364;SDS011;41245;45.384;20.390;2022-07-29T00:23:14;10.15;;;6.93;;
55364;SDS011;41245;45.384;20.390;2022-07-29T00:25:39;20.05;;;6.72;;
55364;SDS011;41245;45.384;20.390;2022-07-29T00:28:05;10.32;;;7.03;;
55364;SDS011;41245;45.384;20.390;2022-07-29T00:30:31;13.95;;;7.30;;
55364;SDS011;41245;45.384;20.390;2022-07-29T00:32:56;9.35;;;6.57;;
55364;SDS011;41245;45.384;20.390;2022-07-29T00:35:22;8.30;;;6.97;;
55364;SDS011;41245;45.384;20.390;2022-07-29T00:38:06;10.05;;;6.78;;
55364;SDS011;41245;45.384;20.390;2022-07-29T00:40:32;10.40;;;7.32;;
55364;SDS011;41245;45.384;20.390;2022-07-29T00:42:59;9.23;;;7.18;;
55364;SDS011;41245;45.384;20.390;2022-07-29T00:45:24;11.88;;;8.30;;
55364;SDS011;41245;45.384;20.390;2022-07-29T00:47:50;9.57;;;7.13;;
55364;SDS011;41245;45.384;20.390;2022-07-29T00:50:16;8.75;;;7.03;;
55364;SDS011;41245;45.384;20.390;2022-07-29T00:52:43;11.98;;;7.40;;
55364;SDS011;41245;45.384;20.390;2022-07-29T00:55:10;11.00;;;7.43;;
55364;SDS011;41245;45.384;20.390;2022-07-29T00:57:38;12.35;;;6.82;;
55364;SDS011;41245;45.384;20.390;2022-07-29T01:00:05;9.13;;;7.30;;
55364;SDS011;41245;45.384;20.390;2022-07-29T01:02:33;9.75;;;7.13;;
55364;SDS011;41245;45.384;20.390;2022-07-29T01:04:59;10.00;;;7.18;;
55364;SDS011;41245;45.384;20.390;2022-07-29T01:07:26;16.00;;;7.70;;
55364;SDS011;41245;45.384;20.390;2022-07-29T01:09:53;8.77;;;7.40;;
55364;SDS011;41245;45.384;20.390;2022-07-29T01:12:24;8.52;;;7.20;;
55364;SDS011;41245;45.384;20.390;2022-07-29T01:14:52;10.40;;;7.85;;
55364;SDS011;41245;45.384;20.390;2022-07-29T01:31:00;10.55;;;7.72;;
55364;SDS011;41245;45.384;20.390;2022-07-29T01:33:29;11.55;;;7.80;;
55364;SDS011;41245;45.384;20.390;2022-07-29T01:39:04;9.77;;;7.53;;
55364;SDS011;41245;45.384;20.390;2022-07-29T01:41:58;9.95;;;8.35;;
55364;SDS011;41245;45.384;20.390;2022-07-29T01:44:41;11.07;;;7.93;;
55364;SDS011;41245;45.384;20.390;2022-07-29T01:47:19;10.73;;;7.30;;
55364;SDS011;41245;45.384;20.390;2022-07-29T01:49:49;8.70;;;7.82;;
55364;SDS011;41245;45.384;20.390;2022-07-29T01:55:13;9.23;;;7.43;;
55364;SDS011;41245;45.384;20.390;2022-07-29T01:57:42;16.70;;;9.05;;
55364;SDS011;41245;45.384;20.390;2022-07-29T02:00:10;13.15;;;8.48;;
55364;SDS011;41245;45.384;20.390;2022-07-29T02:02:37;9.63;;;8.63;;
55364;SDS011;41245;45.384;20.390;2022-07-29T02:05:06;11.38;;;8.63;;
55364;SDS011;41245;45.384;20.390;2022-07-29T02:07:35;15.95;;;9.15;;
55364;SDS011;41245;45.384;20.390;2022-07-29T02:10:03;15.48;;;8.70;;
55364;SDS011;41245;45.384;20.390;2022-07-29T02:12:31;10.03;;;8.93;;
55364;SDS011;41245;45.384;20.390;2022-07-29T02:14:59;10.23;;;8.77;;
55364;SDS011;41245;45.384;20.390;2022-07-29T02:17:39;10.02;;;8.57;;
55364;SDS011;41245;45.384;20.390;2022-07-29T02:20:07;14.80;;;8.35;;
55364;SDS011;41245;45.384;20.390;2022-07-29T02:22:35;12.32;;;8.73;;
55364;SDS011;41245;45.384;20.390;2022-07-29T02:25:03;10.68;;;8.80;;
55364;SDS011;41245;45.384;20.390;2022-07-29T02:27:30;12.45;;;9.48;;
55364;SDS011;41245;45.384;20.390;2022-07-29T02:30:00;16.08;;;9.10;;
55364;SDS011;41245;45.384;20.390;2022-07-29T02:32:27;9.98;;;8.98;;
55364;SDS011;41245;45.384;20.390;2022-07-29T02:34:55;11.95;;;9.63;;
55364;SDS011;41245;45.384;20.390;2022-07-29T02:37:22;13.95;;;9.13;;
55364;SDS011;41245;45.384;20.390;2022-07-29T02:39:49;12.73;;;9.40;;
55364;SDS011;41245;45.384;20.390;2022-07-29T02:42:17;16.58;;;9.55;;
55364;SDS011;41245;45.384;20.390;2022-07-29T02:44:43;11.38;;;8.82;;
55364;SDS011;41245;45.384;20.390;2022-07-29T02:49:55;9.63;;;8.65;;
55364;SDS011;41245;45.384;20.390;2022-07-29T02:52:31;9.95;;;8.95;;
55364;SDS011;41245;45.384;20.390;2022-07-29T02:57:43;15.32;;;9.38;;
55364;SDS011;41245;45.384;20.390;2022-07-29T03:00:12;13.57;;;9.02;;
55364;SDS011;41245;45.384;20.390;2022-07-29T03:02:44;10.90;;;9.45;;
55364;SDS011;41245;45.384;20.390;2022-07-29T03:05:15;11.90;;;8.63;;
55364;SDS011;41245;45.384;20.390;2022-07-29T03:07:45;11.98;;;9.68;;
55364;SDS011;41245;45.384;20.390;2022-07-29T03:10:14;12.77;;;9.18;;
55364;SDS011;41245;45.384;20.390;2022-07-29T03:12:40;11.00;;;9.43;;
55364;SDS011;41245;45.384;20.390;2022-07-29T03:15:07;10.40;;;8.93;;
55364;SDS011;41245;45.384;20.390;2022-07-29T03:17:34;13.75;;;8.82;;
55364;SDS011;41245;45.384;20.390;2022-07-29T03:20:01;15.93;;;9.45;;
55364;SDS011;41245;45.384;20.390;2022-07-29T03:22:27;11.30;;;8.98;;
55364;SDS011;41245;45.384;20.390;2022-07-29T03:24:54;13.77;;;10.45;;
55364;SDS011;41245;45.384;20.390;2022-07-29T03:27:19;13.15;;;10.48;;
55364;SDS011;41245;45.384;20.390;2022-07-29T03:29:45;15.90;;;10.82;;
55364;SDS011;41245;45.384;20.390;2022-07-29T03:32:11;14.57;;;11.95;;
55364;SDS011;41245;45.384;20.390;2022-07-29T03:34:37;16.17;;;10.82;;
55364;SDS011;41245;45.384;20.390;2022-07-29T03:37:03;13.93;;;10.32;;
55364;SDS011;41245;45.384;20.390;2022-07-29T03:39:31;17.27;;;10.88;;
55364;SDS011;41245;45.384;20.390;2022-07-29T03:42:01;11.73;;;10.43;;
55364;SDS011;41245;45.384;20.390;2022-07-29T03:44:30;16.60;;;10.60;;
55364;SDS011;41245;45.384;20.390;2022-07-29T03:46:57;13.13;;;10.65;;
55364;SDS011;41245;45.384;20.390;2022-07-29T03:49:26;16.52;;;11.30;;
55364;SDS011;41245;45.384;20.390;2022-07-29T03:51:54;23.20;;;11.27;;
55364;SDS011;41245;45.384;20.390;2022-07-29T03:54:20;19.70;;;11.32;;
55364;SDS011;41245;45.384;20.390;2022-07-29T03:56:46;19.65;;;10.05;;
55364;SDS011;41245;45.384;20.390;2022-07-29T03:59:15;19.93;;;11.30;;
55364;SDS011;41245;45.384;20.390;2022-07-29T04:01:44;21.20;;;11.13;;
55364;SDS011;41245;45.384;20.390;2022-07-29T04:04:11;13.02;;;9.85;;
55364;SDS011;41245;45.384;20.390;2022-07-29T04:06:40;15.57;;;9.43;;
55364;SDS011;41245;45.384;20.390;2022-07-29T04:09:07;12.35;;;10.05;;
55364;SDS011;41245;45.384;20.390;2022-07-29T04:11:33;15.50;;;9.73;;
55364;SDS011;41245;45.384;20.390;2022-07-29T04:14:00;20.50;;;11.90;;
55364;SDS011;41245;45.384;20.390;2022-07-29T04:16:26;14.60;;;11.15;;
55364;SDS011;41245;45.384;20.390;2022-07-29T04:18:52;14.65;;;10.88;;
55364;SDS011;41245;45.384;20.390;2022-07-29T04:21:18;25.33;;;11.07;;
55364;SDS011;41245;45.384;20.390;2022-07-29T04:23:43;19.20;;;11.57;;
55364;SDS011;41245;45.384;20.390;2022-07-29T04:26:10;11.35;;;9.55;;
55364;SDS011;41245;45.384;20.390;2022-07-29T04:28:36;14.07;;;10.10;;
55364;SDS011;41245;45.384;20.390;2022-07-29T04:31:04;12.85;;;9.45;;
55364;SDS011;41245;45.384;20.390;2022-07-29T04:33:30;11.05;;;9.57;;
55364;SDS011;41245;45.384;20.390;2022-07-29T04:35:55;21.13;;;11.93;;
55364;SDS011;41245;45.384;20.390;2022-07-29T04:38:21;17.35;;;12.18;;
55364;SDS011;41245;45.384;20.390;2022-07-29T04:40:47;14.93;;;9.82;;
55364;SDS011;41245;45.384;20.390;2022-07-29T04:43:13;15.88;;;9.27;;
55364;SDS011;41245;45.384;20.390;2022-07-29T04:45:39;13.75;;;9.40;;
55364;SDS011;41245;45.384;20.390;2022-07-29T04:48:05;13.10;;;10.40;;
55364;SDS011;41245;45.384;20.390;2022-07-29T04:50:31;17.90;;;8.55;;
55364;SDS011;41245;45.384;20.390;2022-07-29T04:52:57;10.45;;;8.73;;
55364;SDS011;41245;45.384;20.390;2022-07-29T04:55:23;14.85;;;8.20;;
55364;SDS011;41245;45.384;20.390;2022-07-29T04:57:49;11.68;;;9.50;;
55364;SDS011;41245;45.384;20.390;2022-07-29T05:00:15;17.77;;;10.07;;
55364;SDS011;41245;45.384;20.390;2022-07-29T05:02:42;16.95;;;11.52;;
55364;SDS011;41245;45.384;20.390;2022-07-29T05:05:08;16.70;;;12.50;;
55364;SDS011;41245;45.384;20.390;2022-07-29T05:07:35;26.52;;;16.40;;
55364;SDS011;41245;45.384;20.390;2022-07-29T05:10:01;24.80;;;18.70;;
55364;SDS011;41245;45.384;20.390;2022-07-29T05:12:27;23.77;;;17.23;;
55364;SDS011;41245;45.384;20.390;2022-07-29T05:14:53;23.23;;;18.50;;
55364;SDS011;41245;45.384;20.390;2022-07-29T05:17:19;27.92;;;17.60;;
55364;SDS011;41245;45.384;20.390;2022-07-29T05:19:45;28.83;;;18.90;;
55364;SDS011;41245;45.384;20.390;2022-07-29T05:22:11;24.30;;;19.67;;
55364;SDS011;41245;45.384;20.390;2022-07-29T05:24:37;19.13;;;14.07;;
55364;SDS011;41245;45.384;20.390;2022-07-29T05:27:03;19.38;;;14.02;;
55364;SDS011;41245;45.384;20.390;2022-07-29T05:29:29;24.48;;;18.58;;
55364;SDS011;41245;45.384;20.390;2022-07-29T05:31:56;35.20;;;22.35;;
55364;SDS011;41245;45.384;20.390;2022-07-29T05:34:22;25.58;;;18.77;;
55364;SDS011;41245;45.384;20.390;2022-07-29T05:36:48;29.00;;;20.63;;
55364;SDS011;41245;45.384;20.390;2022-07-29T05:39:15;25.52;;;17.02;;
55364;SDS011;41245;45.384;20.390;2022-07-29T05:41:41;18.33;;;14.80;;
55364;SDS011;41245;45.384;20.390;2022-07-29T05:44:06;17.95;;;13.27;;
55364;SDS011;41245;45.384;20.390;2022-07-29T05:46:32;18.95;;;15.00;;
55364;SDS011;41245;45.384;20.390;2022-07-29T05:48:58;23.65;;;15.13;;
55364;SDS011;41245;45.384;20.390;2022-07-29T05:51:23;19.08;;;12.10;;
55364;SDS011;41245;45.384;20.390;2022-07-29T05:53:49;10.95;;;7.80;;
55364;SDS011;41245;45.384;20.390;2022-07-29T05:56:15;13.93;;;10.75;;
55364;SDS011;41245;45.384;20.390;2022-07-29T05:58:40;15.40;;;11.15;;
55364;SDS011;41245;45.384;20.390;2022-07-29T06:01:06;19.77;;;12.40;;
55364;SDS011;41245;45.384;20.390;2022-07-29T06:03:32;12.85;;;9.45;;
55364;SDS011;41245;45.384;20.390;2022-07-29T06:05:59;15.82;;;8.35;;
55364;SDS011;41245;45.384;20.390;2022-07-29T06:08:25;15.40;;;8.23;;
55364;SDS011;41245;45.384;20.390;2022-07-29T06:10:51;16.88;;;9.77;;
55364;SDS011;41245;45.384;20.390;2022-07-29T06:13:17;10.25;;;9.10;;
55364;SDS011;41245;45.384;20.390;2022-07-29T06:15:43;12.68;;;8.70;;
55364;SDS011;41245;45.384;20.390;2022-07-29T06:18:08;12.02;;;6.93;;
55364;SDS011;41245;45.384;20.390;2022-07-29T06:20:35;10.18;;;6.38;;
55364;SDS011;41245;45.384;20.390;2022-07-29T06:23:01;7.85;;;4.20;;
55364;SDS011;41245;45.384;20.390;2022-07-29T06:25:29;9.05;;;4.18;;
55364;SDS011;41245;45.384;20.390;2022-07-29T06:27:57;9.02;;;4.47;;
55364;SDS011;41245;45.384;20.390;2022-07-29T06:30:22;8.88;;;7.50;;
55364;SDS011;41245;45.384;20.390;2022-07-29T06:32:48;8.82;;;6.85;;
55364;SDS011;41245;45.384;20.390;2022-07-29T06:35:14;12.70;;;5.32;;
55364;SDS011;41245;45.384;20.390;2022-07-29T06:37:40;6.85;;;4.55;;
55364;SDS011;41245;45.384;20.390;2022-07-29T06:40:06;13.38;;;4.90;;
55364;SDS011;41245;45.384;20.390;2022-07-29T06:42:50;6.55;;;4.07;;
55364;SDS011;41245;45.384;20.390;2022-07-29T06:45:16;7.35;;;5.80;;
55364;SDS011;41245;45.384;20.390;2022-07-29T06:47:41;8.75;;;5.32;;
55364;SDS011;41245;45.384;20.390;2022-07-29T06:50:07;8.52;;;4.60;;
55364;SDS011;41245;45.384;20.390;2022-07-29T06:52:36;6.32;;;4.32;;
55364;SDS011;41245;45.384;20.390;2022-07-29T06:55:03;5.15;;;3.95;;
55364;SDS011;41245;45.384;20.390;2022-07-29T06:57:29;4.18;;;3.78;;
55364;SDS011;41245;45.384;20.390;2022-07-29T06:59:58;6.63;;;3.58;;
55364;SDS011;41245;45.384;20.390;2022-07-29T07:02:24;4.20;;;3.67;;
55364;SDS011;41245;45.384;20.390;2022-07-29T07:04:50;5.53;;;3.72;;
55364;SDS011;41245;45.384;20.390;2022-07-29T07:07:16;10.20;;;4.70;;
55364;SDS011;41245;45.384;20.390;2022-07-29T07:09:42;5.43;;;3.83;;
55364;SDS011;41245;45.384;20.390;2022-07-29T07:12:08;13.55;;;5.20;;
55364;SDS011;41245;45.384;20.390;2022-07-29T07:14:34;4.75;;;4.28;;
55364;SDS011;41245;45.384;20.390;2022-07-29T07:17:00;4.18;;;3.60;;
55364;SDS011;41245;45.384;20.390;2022-07-29T07:19:28;8.80;;;4.57;;
55364;SDS011;41245;45.384;20.390;2022-07-29T07:21:53;7.85;;;4.72;;
55364;SDS011;41245;45.384;20.390;2022-07-29T07:24:19;4.90;;;3.95;;
55364;SDS011;41245;45.384;20.390;2022-07-29T07:26:45;8.15;;;5.32;;
55364;SDS011;41245;45.384;20.390;2022-07-29T07:29:11;6.00;;;3.72;;
55364;SDS011;41245;45.384;20.390;2022-07-29T07:31:37;4.40;;;4.00;;
55364;SDS011;41245;45.384;20.390;2022-07-29T07:34:03;7.80;;;4.90;;
55364;SDS011;41245;45.384;20.390;2022-07-29T07:36:29;8.07;;;4.15;;
55364;SDS011;41245;45.384;20.390;2022-07-29T07:38:54;7.45;;;4.65;;
55364;SDS011;41245;45.384;20.390;2022-07-29T07:41:20;5.28;;;4.78;;
55364;SDS011;41245;45.384;20.390;2022-07-29T07:43:46;6.18;;;4.40;;
55364;SDS011;41245;45.384;20.390;2022-07-29T07:46:12;5.40;;;4.57;;
55364;SDS011;41245;45.384;20.390;2022-07-29T07:48:38;8.38;;;4.75;;
55364;SDS011;41245;45.384;20.390;2022-07-29T07:51:04;5.53;;;4.13;;
55364;SDS011;41245;45.384;20.390;2022-07-29T07:53:29;10.13;;;4.70;;
55364;SDS011;41245;45.384;20.390;2022-07-29T07:55:55;5.70;;;4.85;;
55364;SDS011;41245;45.384;20.390;2022-07-29T07:58:21;10.07;;;4.30;;
55364;SDS011;41245;45.384;20.390;2022-07-29T08:00:47;9.40;;;5.13;;
55364;SDS011;41245;45.384;20.390;2022-07-29T08:03:12;6.50;;;4.60;;
55364;SDS011;41245;45.384;20.390;2022-07-29T08:05:39;7.95;;;4.28;;
55364;SDS011;41245;45.384;20.390;2022-07-29T08:08:05;9.27;;;4.15;;
55364;SDS011;41245;45.384;20.390;2022-07-29T08:10:31;5.30;;;4.80;;
55364;SDS011;41245;45.384;20.390;2022-07-29T08:13:16;10.75;;;4.05;;
55364;SDS011;41245;45.384;20.390;2022-07-29T08:15:43;7.97;;;4.50;;
55364;SDS011;41245;45.384;20.390;2022-07-29T08:18:10;6.30;;;4.78;;
55364;SDS011;41245;45.384;20.390;2022-07-29T08:20:37;9.30;;;5.07;;
55364;SDS011;41245;45.384;20.390;2022-07-29T08:23:04;8.77;;;5.07;;
55364;SDS011;41245;45.384;20.390;2022-07-29T08:25:36;7.32;;;4.50;;
55364;SDS011;41245;45.384;20.390;2022-07-29T08:28:04;6.70;;;4.40;;
55364;SDS011;41245;45.384;20.390;2022-07-29T08:30:30;7.60;;;4.47;;
55364;SDS011;41245;45.384;20.390;2022-07-29T08:32:57;9.15;;;4.78;;
55364;SDS011;41245;45.384;20.390;2022-07-29T08:35:23;4.65;;;4.25;;
55364;SDS011;41245;45.384;20.390;2022-07-29T08:37:50;6.13;;;5.40;;
55364;SDS011;41245;45.384;20.390;2022-07-29T08:40:16;5.30;;;4.75;;
55364;SDS011;41245;45.384;20.390;2022-07-29T08:42:42;6.95;;;4.80;;
55364;SDS011;41245;45.384;20.390;2022-07-29T08:45:08;4.78;;;4.32;;
55364;SDS011;41245;45.384;20.390;2022-07-29T08:47:37;6.43;;;4.45;;
55364;SDS011;41245;45.384;20.390;2022-07-29T08:50:07;7.35;;;5.60;;
55364;SDS011;41245;45.384;20.390;2022-07-29T08:52:35;6.85;;;4.80;;
55364;SDS011;41245;45.384;20.390;2022-07-29T08:55:02;9.55;;;4.60;;
55364;SDS011;41245;45.384;20.390;2022-07-29T08:57:28;5.35;;;4.85;;
55364;SDS011;41245;45.384;20.390;2022-07-29T08:59:54;12.05;;;6.03;;
55364;SDS011;41245;45.384;20.390;2022-07-29T09:02:22;8.85;;;5.47;;
55364;SDS011;41245;45.384;20.390;2022-07-29T09:04:50;11.25;;;5.47;;
55364;SDS011;41245;45.384;20.390;2022-07-29T09:07:17;9.40;;;5.35;;
55364;SDS011;41245;45.384;20.390;2022-07-29T09:09:44;7.10;;;5.60;;
55364;SDS011;41245;45.384;20.390;2022-07-29T09:12:10;12.32;;;5.45;;
55364;SDS011;41245;45.384;20.390;2022-07-29T09:14:37;7.70;;;5.10;;
55364;SDS011;41245;45.384;20.390;2022-07-29T09:17:03;6.20;;;5.05;;
55364;SDS011;41245;45.384;20.390;2022-07-29T09:19:30;10.20;;;5.10;;
55364;SDS011;41245;45.384;20.390;2022-07-29T09:21:58;9.10;;;5.32;;
55364;SDS011;41245;45.384;20.390;2022-07-29T09:26:53;7.22;;;5.03;;
55364;SDS011;41245;45.384;20.390;2022-07-29T09:29:21;9.82;;;5.80;;
55364;SDS011;41245;45.384;20.390;2022-07-29T09:31:48;5.65;;;5.15;;
55364;SDS011;41245;45.384;20.390;2022-07-29T09:34:16;7.07;;;5.25;;
55364;SDS011;41245;45.384;20.390;2022-07-29T09:36:42;11.30;;;6.30;;
55364;SDS011;41245;45.384;20.390;2022-07-29T09:39:09;6.05;;;5.53;;
55364;SDS011;41245;45.384;20.390;2022-07-29T09:44:11;5.70;;;5.20;;
55364;SDS011;41245;45.384;20.390;2022-07-29T09:46:37;6.40;;;5.55;;
55364;SDS011;41245;45.384;20.390;2022-07-29T09:49:06;11.43;;;5.90;;
55364;SDS011;41245;45.384;20.390;2022-07-29T09:51:36;6.18;;;5.68;;
55364;SDS011;41245;45.384;20.390;2022-07-29T09:54:04;6.80;;;6.15;;
55364;SDS011;41245;45.384;20.390;2022-07-29T09:56:47;10.48;;;5.65;;
55364;SDS011;41245;45.384;20.390;2022-07-29T09:59:13;6.47;;;5.88;;
55364;SDS011;41245;45.384;20.390;2022-07-29T10:01:39;6.75;;;5.85;;
55364;SDS011;41245;45.384;20.390;2022-07-29T10:04:05;8.02;;;5.93;;
55364;SDS011;41245;45.384;20.390;2022-07-29T10:06:31;12.00;;;6.47;;
55364;SDS011;41245;45.384;20.390;2022-07-29T10:09:07;7.80;;;6.30;;
55364;SDS011;41245;45.384;20.390;2022-07-29T10:11:34;7.35;;;6.47;;
55364;SDS011;41245;45.384;20.390;2022-07-29T10:14:01;15.23;;;6.70;;
55364;SDS011;41245;45.384;20.390;2022-07-29T10:16:27;10.73;;;6.85;;
55364;SDS011;41245;45.384;20.390;2022-07-29T10:18:57;7.50;;;6.57;;
55364;SDS011;41245;45.384;20.390;2022-07-29T10:21:24;9.13;;;6.15;;
55364;SDS011;41245;45.384;20.390;2022-07-29T10:23:51;8.63;;;6.57;;
55364;SDS011;41245;45.384;20.390;2022-07-29T10:26:19;7.93;;;6.18;;
55364;SDS011;41245;45.384;20.390;2022-07-29T10:28:45;11.07;;;7.25;;
55364;SDS011;41245;45.384;20.390;2022-07-29T10:31:29;8.98;;;6.85;;
55364;SDS011;41245;45.384;20.390;2022-07-29T10:34:09;9.10;;;6.88;;
55364;SDS011;41245;45.384;20.390;2022-07-29T10:42:23;7.35;;;6.63;;
55364;SDS011;41245;45.384;20.390;2022-07-29T10:44:50;9.52;;;7.10;;
55364;SDS011;41245;45.384;20.390;2022-07-29T10:47:23;9.13;;;6.82;;
55364;SDS011;41245;45.384;20.390;2022-07-29T10:49:59;8.70;;;6.72;;
55364;SDS011;41245;45.384;20.390;2022-07-29T10:52:37;7.80;;;6.50;;
55364;SDS011;41245;45.384;20.390;2022-07-29T10:55:30;10.40;;;7.53;;
55364;SDS011;41245;45.384;20.390;2022-07-29T11:00:53;11.25;;;7.32;;
55364;SDS011;41245;45.384;20.390;2022-07-29T11:06:04;10.85;;;6.38;;
55364;SDS011;41245;45.384;20.390;2022-07-29T11:08:30;11.55;;;8.25;;
55364;SDS011;41245;45.384;20.390;2022-07-29T11:16:13;14.02;;;9.98;;
55364;SDS011;41245;45.384;20.390;2022-07-29T11:21:36;12.48;;;8.70;;
55364;SDS011;41245;45.384;20.390;2022-07-29T11:24:13;8.88;;;7.97;;
55364;SDS011;41245;45.384;20.390;2022-07-29T11:26:39;10.35;;;7.32;;
55364;SDS011;41245;45.384;20.390;2022-07-29T11:29:11;12.70;;;7.15;;
55364;SDS011;41245;45.384;20.390;2022-07-29T11:31:42;9.15;;;7.40;;
55364;SDS011;41245;45.384;20.390;2022-07-29T11:34:42;11.18;;;7.25;;
55364;SDS011;41245;45.384;20.390;2022-07-29T11:44:53;7.82;;;7.10;;
55364;SDS011;41245;45.384;20.390;2022-07-29T11:47:21;13.27;;;8.52;;
55364;SDS011;41245;45.384;20.390;2022-07-29T11:49:47;19.25;;;9.00;;
55364;SDS011;41245;45.384;20.390;2022-07-29T11:52:15;11.52;;;6.82;;
55364;SDS011;41245;45.384;20.390;2022-07-29T11:54:42;10.30;;;6.43;;
55364;SDS011;41245;45.384;20.390;2022-07-29T11:57:08;11.05;;;7.28;;
55364;SDS011;41245;45.384;20.390;2022-07-29T11:59:40;18.33;;;7.80;;
55364;SDS011;41245;45.384;20.390;2022-07-29T12:02:07;9.07;;;8.20;;
55364;SDS011;41245;45.384;20.390;2022-07-29T12:04:34;9.35;;;7.93;;
55364;SDS011;41245;45.384;20.390;2022-07-29T12:07:00;10.50;;;7.85;;
55364;SDS011;41245;45.384;20.390;2022-07-29T12:09:26;10.25;;;7.07;;
55364;SDS011;41245;45.384;20.390;2022-07-29T12:11:58;13.00;;;7.65;;
55364;SDS011;41245;45.384;20.390;2022-07-29T12:14:25;12.93;;;8.10;;
55364;SDS011;41245;45.384;20.390;2022-07-29T12:16:52;11.30;;;8.07;;
55364;SDS011;41245;45.384;20.390;2022-07-29T12:19:18;13.52;;;10.82;;
55364;SDS011;41245;45.384;20.390;2022-07-29T12:21:47;11.75;;;8.25;;
55364;SDS011;41245;45.384;20.390;2022-07-29T12:24:14;14.85;;;8.40;;
55364;SDS011;41245;45.384;20.390;2022-07-29T12:26:58;15.80;;;8.15;;
55364;SDS011;41245;45.384;20.390;2022-07-29T12:29:25;9.85;;;8.85;;
55364;SDS011;41245;45.384;20.390;2022-07-29T12:31:54;8.68;;;7.75;;
55364;SDS011;41245;45.384;20.390;2022-07-29T12:34:25;10.13;;;8.20;;
55364;SDS011;41245;45.384;20.390;2022-07-29T12:36:52;21.90;;;10.25;;
55364;SDS011;41245;45.384;20.390;2022-07-29T12:39:18;12.13;;;7.50;;
55364;SDS011;41245;45.384;20.390;2022-07-29T12:41:44;16.98;;;8.05;;
55364;SDS011;41245;45.384;20.390;2022-07-29T12:44:11;8.38;;;7.40;;
55364;SDS011;41245;45.384;20.390;2022-07-29T12:46:37;9.30;;;7.53;;
55364;SDS011;41245;45.384;20.390;2022-07-29T12:49:03;16.10;;;7.68;;
55364;SDS011;41245;45.384;20.390;2022-07-29T12:51:30;9.18;;;7.65;;
55364;SDS011;41245;45.384;20.390;2022-07-29T12:54:06;8.95;;;8.05;;
55364;SDS011;41245;45.384;20.390;2022-07-29T12:56:33;11.40;;;7.25;;
55364;SDS011;41245;45.384;20.390;2022-07-29T12:58:59;11.45;;;7.80;;
55364;SDS011;41245;45.384;20.390;2022-07-29T13:01:25;14.07;;;7.30;;
55364;SDS011;41245;45.384;20.390;2022-07-29T13:03:58;13.60;;;7.07;;
55364;SDS011;41245;45.384;20.390;2022-07-29T13:06:27;8.65;;;6.35;;
55364;SDS011;41245;45.384;20.390;2022-07-29T13:11:27;9.68;;;7.03;;
55364;SDS011;41245;45.384;20.390;2022-07-29T13:13:53;7.10;;;5.95;;
55364;SDS011;41245;45.384;20.390;2022-07-29T13:16:19;12.27;;;6.30;;
55364;SDS011;41245;45.384;20.390;2022-07-29T13:18:45;8.13;;;6.95;;
55364;SDS011;41245;45.384;20.390;2022-07-29T13:21:12;14.30;;;6.55;;
55364;SDS011;41245;45.384;20.390;2022-07-29T13:23:38;6.43;;;5.82;;
55364;SDS011;41245;45.384;20.390;2022-07-29T13:26:05;7.95;;;6.90;;
55364;SDS011;41245;45.384;20.390;2022-07-29T13:28:32;13.18;;;8.18;;
55364;SDS011;41245;45.384;20.390;2022-07-29T13:30:59;7.38;;;6.50;;
55364;SDS011;41245;45.384;20.390;2022-07-29T13:33:25;11.57;;;7.00;;
55364;SDS011;41245;45.384;20.390;2022-07-29T13:35:51;6.70;;;6.00;;
55364;SDS011;41245;45.384;20.390;2022-07-29T13:38:17;10.80;;;6.68;;
55364;SDS011;41245;45.384;20.390;2022-07-29T13:40:43;9.23;;;6.68;;
55364;SDS011;41245;45.384;20.390;2022-07-29T13:43:10;9.80;;;6.80;;
55364;SDS011;41245;45.384;20.390;2022-07-29T13:45:36;16.13;;;6.95;;
55364;SDS011;41245;45.384;20.390;2022-07-29T13:48:02;11.65;;;6.82;;
55364;SDS011;41245;45.384;20.390;2022-07-29T13:50:28;10.38;;;6.57;;
55364;SDS011;41245;45.384;20.390;2022-07-29T13:52:54;7.05;;;6.35;;
55364;SDS011;41245;45.384;20.390;2022-07-29T13:55:20;8.10;;;6.75;;
55364;SDS011;41245;45.384;20.390;2022-07-29T13:57:46;7.18;;;6.53;;
55364;SDS011;41245;45.384;20.390;2022-07-29T14:00:12;6.80;;;6.10;;
55364;SDS011;41245;45.384;20.390;2022-07-29T14:02:40;9.98;;;6.30;;
55364;SDS011;41245;45.384;20.390;2022-07-29T14:05:06;7.20;;;5.90;;
55364;SDS011;41245;45.384;20.390;2022-07-29T14:07:32;9.35;;;6.60;;
55364;SDS011;41245;45.384;20.390;2022-07-29T14:09:58;9.52;;;7.03;;
55364;SDS011;41245;45.384;20.390;2022-07-29T14:12:25;8.35;;;6.35;;
55364;SDS011;41245;45.384;20.390;2022-07-29T14:14:51;10.93;;;7.25;;
55364;SDS011;41245;45.384;20.390;2022-07-29T14:17:17;9.10;;;6.55;;
55364;SDS011;41245;45.384;20.390;2022-07-29T14:19:43;11.05;;;6.18;;
55364;SDS011;41245;45.384;20.390;2022-07-29T14:22:09;9.77;;;6.65;;
55364;SDS011;41245;45.384;20.390;2022-07-29T14:24:35;7.50;;;6.82;;
55364;SDS011;41245;45.384;20.390;2022-07-29T14:27:01;7.18;;;6.47;;
55364;SDS011;41245;45.384;20.390;2022-07-29T14:29:28;9.60;;;7.45;;
55364;SDS011;41245;45.384;20.390;2022-07-29T14:31:54;10.25;;;6.50;;
55364;SDS011;41245;45.384;20.390;2022-07-29T14:34:20;9.35;;;6.70;;
55364;SDS011;41245;45.384;20.390;2022-07-29T14:36:46;9.35;;;8.43;;
55364;SDS011;41245;45.384;20.390;2022-07-29T14:39:12;7.88;;;6.97;;
55364;SDS011;41245;45.384;20.390;2022-07-29T14:41:38;12.23;;;10.95;;
55364;SDS011;41245;45.384;20.390;2022-07-29T14:44:04;7.07;;;6.40;;
55364;SDS011;41245;45.384;20.390;2022-07-29T14:46:30;8.98;;;7.60;;
55364;SDS011;41245;45.384;20.390;2022-07-29T14:48:56;10.60;;;8.75;;
55364;SDS011;41245;45.384;20.390;2022-07-29T14:51:23;7.72;;;6.75;;
55364;SDS011;41245;45.384;20.390;2022-07-29T14:53:49;7.47;;;6.43;;
55364;SDS011;41245;45.384;20.390;2022-07-29T14:56:15;7.18;;;6.47;;
55364;SDS011;41245;45.384;20.390;2022-07-29T14:58:41;9.07;;;6.65;;
55364;SDS011;41245;45.384;20.390;2022-07-29T15:01:07;7.63;;;6.95;;
55364;SDS011;41245;45.384;20.390;2022-07-29T15:03:33;8.82;;;7.82;;
55364;SDS011;41245;45.384;20.390;2022-07-29T15:05:59;11.43;;;10.32;;
55364;SDS011;41245;45.384;20.390;2022-07-29T15:08:25;7.85;;;6.72;;
55364;SDS011;41245;45.384;20.390;2022-07-29T15:10:54;12.68;;;7.95;;
55364;SDS011;41245;45.384;20.390;2022-07-29T15:13:22;9.85;;;6.10;;
55364;SDS011;41245;45.384;20.390;2022-07-29T15:15:48;10.88;;;8.70;;
55364;SDS011;41245;45.384;20.390;2022-07-29T15:18:14;10.07;;;7.47;;
55364;SDS011;41245;45.384;20.390;2022-07-29T15:20:41;8.32;;;6.70;;
55364;SDS011;41245;45.384;20.390;2022-07-29T15:23:07;10.05;;;8.65;;
55364;SDS011;41245;45.384;20.390;2022-07-29T15:25:34;8.27;;;6.65;;
55364;SDS011;41245;45.384;20.390;2022-07-29T15:28:01;8.20;;;6.93;;